sensor_id;sensor_type;location;lat;lon;timestamp;pressure;altitude;pressure_sealevel;temperature;humidity
75424;BME280;64005;55.160;36.002;2023-02-01T00:00:41;97841.06;;;0.90;78.06
75424;BME280;64005;55.160;36.002;2023-02-01T00:03:08;97844.78;;;0.94;78.43
75424;BME280;64005;55.160;36.002;2023-02-01T00:05:38;97847.25;;;0.96;78.55
75424;BME280;64005;55.160;36.002;2023-02-01T00:08:06;97839.25;;;0.99;77.92
75424;BME280;64005;55.160;36.002;2023-02-01T00:10:35;97842.19;;;1.03;77.95
75424;BME280;64005;55.160;36.002;2023-02-01T00:13:02;97842.19;;;1.03;78.69
75424;BME280;64005;55.160;36.002;2023-02-01T00:15:30;97836.19;;;1.01;77.83
75424;BME280;64005;55.160;36.002;2023-02-01T00:17:59;97840.38;;;0.98;78.37
75424;BME280;64005;55.160;36.002;2023-02-01T00:20:26;97832.34;;;1.02;78.32
75424;BME280;64005;55.160;36.002;2023-02-01T00:22:54;97845.22;;;1.01;77.93
75424;BME280;64005;55.160;36.002;2023-02-01T00:25:21;97841.38;;;1.02;78.16
75424;BME280;64005;55.160;36.002;2023-02-01T00:27:50;97845.75;;;1.03;78.49
75424;BME280;64005;55.160;36.002;2023-02-01T00:30:18;97837.81;;;1.02;78.64
75424;BME280;64005;55.160;36.002;2023-02-01T00:32:45;97839.44;;;1.03;78.66
75424;BME280;64005;55.160;36.002;2023-02-01T00:35:13;97841.59;;;1.06;78.64
75424;BME280;64005;55.160;36.002;2023-02-01T00:37:40;97834.88;;;0.98;78.72
75424;BME280;64005;55.160;36.002;2023-02-01T00:40:09;97852.84;;;1.04;78.32
75424;BME280;64005;55.160;36.002;2023-02-01T00:42:38;97834.38;;;0.96;78.70
75424;BME280;64005;55.160;36.002;2023-02-01T00:45:09;97855.56;;;1.04;78.00
75424;BME280;64005;55.160;36.002;2023-02-01T00:47:36;97840.56;;;1.02;77.83
75424;BME280;64005;55.160;36.002;2023-02-01T00:50:04;97842.78;;;1.00;77.82
75424;BME280;64005;55.160;36.002;2023-02-01T00:52:32;97843.91;;;0.99;78.52
75424;BME280;64005;55.160;36.002;2023-02-01T00:54:59;97848.06;;;0.96;78.17
75424;BME280;64005;55.160;36.002;2023-02-01T00:57:27;97845.03;;;0.98;78.76
75424;BME280;64005;55.160;36.002;2023-02-01T00:59:54;97842.28;;;0.98;78.23
75424;BME280;64005;55.160;36.002;2023-02-01T01:02:26;97846.31;;;1.00;77.88
75424;BME280;64005;55.160;36.002;2023-02-01T01:04:54;97846.66;;;0.99;77.82
75424;BME280;64005;55.160;36.002;2023-02-01T01:07:22;97833.25;;;0.97;78.62
75424;BME280;64005;55.160;36.002;2023-02-01T01:09:49;97841.75;;;0.96;77.94
75424;BME280;64005;55.160;36.002;2023-02-01T01:12:16;97836.28;;;0.96;78.38
75424;BME280;64005;55.160;36.002;2023-02-01T01:14:45;97836.38;;;0.91;78.72
75424;BME280;64005;55.160;36.002;2023-02-01T01:17:13;97848.88;;;0.97;78.74
75424;BME280;64005;55.160;36.002;2023-02-01T01:19:42;97850.50;;;0.98;78.55
75424;BME280;64005;55.160;36.002;2023-02-01T01:22:10;97843.97;;;0.94;77.99
75424;BME280;64005;55.160;36.002;2023-02-01T01:24:37;97848.06;;;0.96;78.64
75424;BME280;64005;55.160;36.002;2023-02-01T01:27:05;97844.78;;;0.94;78.08
75424;BME280;64005;55.160;36.002;2023-02-01T01:29:32;97850.28;;;0.94;78.68
75424;BME280;64005;55.160;36.002;2023-02-01T01:32:00;97851.09;;;0.95;78.68
75424;BME280;64005;55.160;36.002;2023-02-01T01:34:27;97858.00;;;0.92;78.20
75424;BME280;64005;55.160;36.002;2023-02-01T01:36:56;97849.16;;;0.95;78.54
75424;BME280;64005;55.160;36.002;2023-02-01T01:39:24;97863.16;;;0.94;78.86
75424;BME280;64005;55.160;36.002;2023-02-01T01:41:51;97851.59;;;0.97;78.37
75424;BME280;64005;55.160;36.002;2023-02-01T01:44:57;97848.88;;;0.97;78.03
75424;BME280;64005;55.160;36.002;2023-02-01T01:47:25;97842.06;;;0.94;78.24
75424;BME280;64005;55.160;36.002;2023-02-01T01:49:54;97856.56;;;0.95;78.76
75424;BME280;64005;55.160;36.002;2023-02-01T01:52:23;97850.28;;;0.94;78.25
75424;BME280;64005;55.160;36.002;2023-02-01T01:54:53;97844.31;;;0.92;78.09
75424;BME280;64005;55.160;36.002;2023-02-01T01:57:31;97848.34;;;0.95;78.69
75424;BME280;64005;55.160;36.002;2023-02-01T02:00:04;97825.84;;;0.84;78.19
75424;BME280;64005;55.160;36.002;2023-02-01T02:02:33;97845.31;;;0.96;78.72
75424;BME280;64005;55.160;36.002;2023-02-01T02:05:01;97848.88;;;0.97;78.02
75424;BME280;64005;55.160;36.002;2023-02-01T02:07:34;97848.06;;;0.96;77.98
75424;BME280;64005;55.160;36.002;2023-02-01T02:10:06;97813.25;;;0.83;77.73
75424;BME280;64005;55.160;36.002;2023-02-01T02:12:38;97835.69;;;0.99;78.62
75424;BME280;64005;55.160;36.002;2023-02-01T02:15:07;97840.03;;;1.00;78.13
75424;BME280;64005;55.160;36.002;2023-02-01T02:17:38;97840.84;;;1.00;77.83
75424;BME280;64005;55.160;36.002;2023-02-01T02:23:47;97844.72;;;0.99;78.42
75424;BME280;64005;55.160;36.002;2023-02-01T02:26:45;97775.53;;;0.53;78.60
75424;BME280;64005;55.160;36.002;2023-02-01T02:29:42;97847.47;;;0.99;77.98
75424;BME280;64005;55.160;36.002;2023-02-01T02:32:35;97852.63;;;1.01;78.46
75424;BME280;64005;55.160;36.002;2023-02-01T02:35:17;97847.13;;;1.01;78.23
75424;BME280;64005;55.160;36.002;2023-02-01T02:37:52;97850.09;;;1.04;78.53
75424;BME280;64005;55.160;36.002;2023-02-01T02:40:27;97853.34;;;1.06;78.64
75424;BME280;64005;55.160;36.002;2023-02-01T02:43:03;97848.19;;;1.05;78.21
75424;BME280;64005;55.160;36.002;2023-02-01T02:45:53;97853.56;;;1.10;78.44
75424;BME280;64005;55.160;36.002;2023-02-01T02:48:45;97794.59;;;0.71;77.68
75424;BME280;64005;55.160;36.002;2023-02-01T02:51:23;97835.19;;;0.97;77.84
75424;BME280;64005;55.160;36.002;2023-02-01T02:54:12;97857.69;;;1.07;78.13
75424;BME280;64005;55.160;36.002;2023-02-01T02:57:00;97817.72;;;0.79;78.27
75424;BME280;64005;55.160;36.002;2023-02-01T02:59:47;97856.84;;;0.93;78.53
75424;BME280;64005;55.160;36.002;2023-02-01T03:02:33;97862.47;;;1.02;78.20
75424;BME280;64005;55.160;36.002;2023-02-01T03:05:19;97869.03;;;1.01;78.37
75424;BME280;64005;55.160;36.002;2023-02-01T03:07:57;97860.25;;;1.04;78.02
75424;BME280;64005;55.160;36.002;2023-02-01T03:10:35;97815.78;;;0.66;78.34
75424;BME280;64005;55.160;36.002;2023-02-01T03:13:08;97849.47;;;0.94;78.68
75424;BME280;64005;55.160;36.002;2023-02-01T03:15:39;97866.53;;;1.04;78.48
75424;BME280;64005;55.160;36.002;2023-02-01T03:18:14;97868.16;;;1.05;78.23
75424;BME280;64005;55.160;36.002;2023-02-01T03:20:46;97867.34;;;1.05;78.09
75424;BME280;64005;55.160;36.002;2023-02-01T03:23:21;97858.91;;;1.01;78.32
75424;BME280;64005;55.160;36.002;2023-02-01T03:25:51;97878.78;;;1.07;77.84
75424;BME280;64005;55.160;36.002;2023-02-01T03:28:23;97878.00;;;1.06;78.74
75424;BME280;64005;55.160;36.002;2023-02-01T03:30:52;97871.38;;;1.07;78.10
75424;BME280;64005;55.160;36.002;2023-02-01T03:33:23;97871.72;;;1.06;78.61
75424;BME280;64005;55.160;36.002;2023-02-01T03:35:59;97842.16;;;0.89;78.22
75424;BME280;64005;55.160;36.002;2023-02-01T03:38:31;97874.94;;;1.08;78.03
75424;BME280;64005;55.160;36.002;2023-02-01T03:41:10;97863.09;;;0.99;77.84
75424;BME280;64005;55.160;36.002;2023-02-01T03:43:51;97882.66;;;1.06;78.88
75424;BME280;64005;55.160;36.002;2023-02-01T03:46:28;97846.09;;;0.83;78.11
75424;BME280;64005;55.160;36.002;2023-02-01T03:49:02;97881.03;;;1.05;78.18
75424;BME280;64005;55.160;36.002;2023-02-01T03:51:31;97879.13;;;1.05;78.01
75424;BME280;64005;55.160;36.002;2023-02-01T03:54:02;97826.09;;;0.69;77.97
75424;BME280;64005;55.160;36.002;2023-02-01T03:56:32;97808.03;;;0.54;78.93
75424;BME280;64005;55.160;36.002;2023-02-01T03:59:02;97879.94;;;1.06;78.22
75424;BME280;64005;55.160;36.002;2023-02-01T04:01:30;97879.31;;;1.09;78.57
75424;BME280;64005;55.160;36.002;2023-02-01T04:03:58;97871.38;;;1.07;78.40
75424;BME280;64005;55.160;36.002;2023-02-01T04:06:26;97872.72;;;1.10;78.09
75424;BME280;64005;55.160;36.002;2023-02-01T04:08:53;97877.19;;;1.06;78.85
75424;BME280;64005;55.160;36.002;2023-02-01T04:11:22;97884.88;;;1.04;78.61
75424;BME280;64005;55.160;36.002;2023-02-01T04:13:50;97874.22;;;1.02;78.76
75424;BME280;64005;55.160;36.002;2023-02-01T04:16:17;97884.59;;;1.05;78.10
75424;BME280;64005;55.160;36.002;2023-02-01T04:18:45;97879.69;;;1.02;78.17
75424;BME280;64005;55.160;36.002;2023-02-01T04:21:12;97884.59;;;1.05;78.66
75424;BME280;64005;55.160;36.002;2023-02-01T04:23:39;97882.44;;;1.02;78.26
75424;BME280;64005;55.160;36.002;2023-02-01T04:26:07;97887.34;;;1.05;78.57
75424;BME280;64005;55.160;36.002;2023-02-01T04:28:36;97884.38;;;1.02;78.63
75424;BME280;64005;55.160;36.002;2023-02-01T04:31:04;97888.22;;;1.01;78.49
75424;BME280;64005;55.160;36.002;2023-02-01T04:33:31;97886.91;;;0.98;78.47
75424;BME280;64005;55.160;36.002;2023-02-01T04:35:59;97893.50;;;0.97;78.58
75424;BME280;64005;55.160;36.002;2023-02-01T04:38:27;97895.41;;;0.97;78.33
75424;BME280;64005;55.160;36.002;2023-02-01T04:40:55;97891.34;;;0.94;78.72
75424;BME280;64005;55.160;36.002;2023-02-01T04:43:22;97894.09;;;0.94;79.40
75424;BME280;64005;55.160;36.002;2023-02-01T04:45:52;97900.38;;;0.95;78.82
75424;BME280;64005;55.160;36.002;2023-02-01T04:48:20;97889.41;;;0.95;78.63
75424;BME280;64005;55.160;36.002;2023-02-01T04:50:48;97894.91;;;0.95;78.64
75424;BME280;64005;55.160;36.002;2023-02-01T04:53:16;97901.47;;;0.94;79.12
75424;BME280;64005;55.160;36.002;2023-02-01T04:55:44;97902.81;;;0.96;78.68
75424;BME280;64005;55.160;36.002;2023-02-01T04:58:11;97896.75;;;0.99;79.34
75424;BME280;64005;55.160;36.002;2023-02-01T05:00:39;97912.38;;;0.99;78.38
75424;BME280;64005;55.160;36.002;2023-02-01T05:03:08;97908.81;;;0.98;79.16
75424;BME280;64005;55.160;36.002;2023-02-01T05:05:35;97905.25;;;0.98;78.25
75424;BME280;64005;55.160;36.002;2023-02-01T05:08:03;97905.25;;;0.98;78.46
75424;BME280;64005;55.160;36.002;2023-02-01T05:10:31;97902.53;;;0.98;78.50
75424;BME280;64005;55.160;36.002;2023-02-01T05:12:58;97902.00;;;0.96;78.49
75424;BME280;64005;55.160;36.002;2023-02-01T05:15:43;97905.41;;;0.88;78.81
75424;BME280;64005;55.160;36.002;2023-02-01T05:18:13;97905.66;;;0.91;79.15
75424;BME280;64005;55.160;36.002;2023-02-01T05:20:40;97913.56;;;0.93;78.86
75424;BME280;64005;55.160;36.002;2023-02-01T05:23:08;97914.69;;;0.92;79.24
75424;BME280;64005;55.160;36.002;2023-02-01T05:25:35;97915.16;;;0.94;79.03
75424;BME280;64005;55.160;36.002;2023-02-01T05:28:03;97916.78;;;0.95;79.02
75424;BME280;64005;55.160;36.002;2023-02-01T05:30:32;97912.66;;;0.97;79.12
75424;BME280;64005;55.160;36.002;2023-02-01T05:33:01;97911.84;;;0.97;79.03
75424;BME280;64005;55.160;36.002;2023-02-01T05:35:31;97912.44;;;0.94;78.76
75424;BME280;64005;55.160;36.002;2023-02-01T05:37:58;97915.78;;;0.91;78.66
75424;BME280;64005;55.160;36.002;2023-02-01T05:40:26;97919.34;;;0.91;79.11
75424;BME280;64005;55.160;36.002;2023-02-01T05:42:53;97928.84;;;0.94;78.79
75424;BME280;64005;55.160;36.002;2023-02-01T05:45:20;97927.47;;;0.96;79.31
75424;BME280;64005;55.160;36.002;2023-02-01T05:47:48;97924.72;;;0.96;78.66
75424;BME280;64005;55.160;36.002;2023-02-01T05:50:15;97926.94;;;0.94;79.48
75424;BME280;64005;55.160;36.002;2023-02-01T05:52:45;97921.78;;;0.93;78.74
75424;BME280;64005;55.160;36.002;2023-02-01T05:55:12;97930.00;;;0.93;78.62
75424;BME280;64005;55.160;36.002;2023-02-01T05:57:39;97918.72;;;0.94;78.89
75424;BME280;64005;55.160;36.002;2023-02-01T06:00:08;97927.16;;;0.98;78.82
75424;BME280;64005;55.160;36.002;2023-02-01T06:02:36;97931.53;;;0.99;78.50
75424;BME280;64005;55.160;36.002;2023-02-01T06:05:05;97936.50;;;0.97;79.26
75424;BME280;64005;55.160;36.002;2023-02-01T06:07:32;97927.75;;;0.95;79.02
75424;BME280;64005;55.160;36.002;2023-02-01T06:10:01;97932.13;;;0.96;78.64
75424;BME280;64005;55.160;36.002;2023-02-01T06:12:29;97941.66;;;0.98;78.42
75424;BME280;64005;55.160;36.002;2023-02-01T06:14:56;97935.56;;;1.01;78.86
75424;BME280;64005;55.160;36.002;2023-02-01T06:17:24;97935.00;;;1.04;79.07
75424;BME280;64005;55.160;36.002;2023-02-01T06:19:52;97937.94;;;1.08;78.34
75424;BME280;64005;55.160;36.002;2023-02-01T06:22:19;97936.63;;;1.05;78.98
75424;BME280;64005;55.160;36.002;2023-02-01T06:24:47;97943.50;;;1.03;78.51
75424;BME280;64005;55.160;36.002;2023-02-01T06:27:16;97948.97;;;1.03;78.59
75424;BME280;64005;55.160;36.002;2023-02-01T06:29:43;97952.22;;;1.05;79.10
75424;BME280;64005;55.160;36.002;2023-02-01T06:32:11;97953.13;;;1.00;79.46
75424;BME280;64005;55.160;36.002;2023-02-01T06:34:38;97951.19;;;1.01;78.65
75424;BME280;64005;55.160;36.002;2023-02-01T06:37:05;97949.56;;;1.00;79.54
75424;BME280;64005;55.160;36.002;2023-02-01T06:39:33;97961.56;;;1.04;78.94
75424;BME280;64005;55.160;36.002;2023-02-01T06:42:01;97952.72;;;1.07;78.83
75424;BME280;64005;55.160;36.002;2023-02-01T06:44:30;97956.28;;;1.07;78.38
75424;BME280;64005;55.160;36.002;2023-02-01T06:46:58;97952.97;;;1.10;78.32
75424;BME280;64005;55.160;36.002;2023-02-01T06:49:25;97957.31;;;1.11;78.99
75424;BME280;64005;55.160;36.002;2023-02-01T06:51:52;97948.28;;;1.11;78.29
75424;BME280;64005;55.160;36.002;2023-02-01T06:54:20;97954.28;;;1.13;79.23
75424;BME280;64005;55.160;36.002;2023-02-01T06:56:47;97950.75;;;1.12;79.32
75424;BME280;64005;55.160;36.002;2023-02-01T06:59:15;97956.31;;;1.21;79.25
75424;BME280;64005;55.160;36.002;2023-02-01T07:01:44;97947.22;;;1.26;78.70
75424;BME280;64005;55.160;36.002;2023-02-01T07:04:12;97954.28;;;1.27;78.98
75424;BME280;64005;55.160;36.002;2023-02-01T07:06:39;97955.22;;;1.36;78.57
75424;BME280;64005;55.160;36.002;2023-02-01T07:09:07;97958.97;;;1.40;78.65
75424;BME280;64005;55.160;36.002;2023-02-01T07:11:35;97957.28;;;1.44;78.24
75424;BME280;64005;55.160;36.002;2023-02-01T07:14:06;97962.06;;;1.38;78.80
75424;BME280;64005;55.160;36.002;2023-02-01T07:16:33;97959.34;;;1.52;78.60
75424;BME280;64005;55.160;36.002;2023-02-01T07:19:02;97950.91;;;1.62;78.10
75424;BME280;64005;55.160;36.002;2023-02-01T07:21:30;97958.81;;;1.64;77.60
75424;BME280;64005;55.160;36.002;2023-02-01T07:23:59;97960.03;;;1.57;77.58
75424;BME280;64005;55.160;36.002;2023-02-01T07:26:26;97969.28;;;1.62;78.32
75424;BME280;64005;55.160;36.002;2023-02-01T07:28:54;97968.97;;;1.63;77.95
75424;BME280;64005;55.160;36.002;2023-02-01T07:31:21;97965.94;;;1.65;77.91
75424;BME280;64005;55.160;36.002;2023-02-01T07:33:49;97960.03;;;1.57;78.11
75424;BME280;64005;55.160;36.002;2023-02-01T07:36:20;97957.19;;;1.63;77.95
75424;BME280;64005;55.160;36.002;2023-02-01T07:38:47;97944.19;;;1.54;77.37
75424;BME280;64005;55.160;36.002;2023-02-01T07:41:17;97963.69;;;1.67;77.80
75424;BME280;64005;55.160;36.002;2023-02-01T07:43:44;97962.28;;;1.69;77.52
75424;BME280;64005;55.160;36.002;2023-02-01T07:46:13;97967.47;;;1.71;77.22
75424;BME280;64005;55.160;36.002;2023-02-01T07:48:41;97970.09;;;1.76;77.00
75424;BME280;64005;55.160;36.002;2023-02-01T07:51:10;97968.47;;;1.75;77.01
75424;BME280;64005;55.160;36.002;2023-02-01T07:53:40;97965.03;;;1.83;77.61
75424;BME280;64005;55.160;36.002;2023-02-01T07:56:11;97942.78;;;1.71;76.67
75424;BME280;64005;55.160;36.002;2023-02-01T07:58:39;97931.59;;;1.67;77.11
75424;BME280;64005;55.160;36.002;2023-02-01T08:01:13;97966.44;;;1.80;77.20
75424;BME280;64005;55.160;36.002;2023-02-01T08:03:48;97973.06;;;1.79;77.21
75424;BME280;64005;55.160;36.002;2023-02-01T08:06:16;97975.69;;;1.84;77.03
75424;BME280;64005;55.160;36.002;2023-02-01T08:08:47;97972.72;;;1.81;76.75
75424;BME280;64005;55.160;36.002;2023-02-01T08:11:14;97973.34;;;1.78;76.56
75424;BME280;64005;55.160;36.002;2023-02-01T08:13:42;97971.91;;;1.80;76.73
75424;BME280;64005;55.160;36.002;2023-02-01T08:16:13;97967.34;;;1.89;76.86
75424;BME280;64005;55.160;36.002;2023-02-01T08:18:41;97969.19;;;1.80;76.93
75424;BME280;64005;55.160;36.002;2023-02-01T08:21:10;97962.88;;;1.93;76.50
75424;BME280;64005;55.160;36.002;2023-02-01T08:23:40;97961.47;;;1.96;76.05
75424;BME280;64005;55.160;36.002;2023-02-01T08:26:11;97966.13;;;1.95;76.52
75424;BME280;64005;55.160;36.002;2023-02-01T08:28:41;97959.25;;;1.98;76.16
75424;BME280;64005;55.160;36.002;2023-02-01T08:31:13;97893.44;;;1.57;76.03
75424;BME280;64005;55.160;36.002;2023-02-01T08:33:42;97957.50;;;2.02;75.88
75424;BME280;64005;55.160;36.002;2023-02-01T08:36:11;97950.47;;;2.10;76.12
75424;BME280;64005;55.160;36.002;2023-02-01T08:38:39;97955.13;;;2.23;75.92
75424;BME280;64005;55.160;36.002;2023-02-01T08:41:09;97960.63;;;2.23;75.42
75424;BME280;64005;55.160;36.002;2023-02-01T08:43:48;97958.06;;;2.26;75.39
75424;BME280;64005;55.160;36.002;2023-02-01T08:46:16;97964.06;;;2.28;75.43
75424;BME280;64005;55.160;36.002;2023-02-01T08:48:45;97901.38;;;1.86;75.24
75424;BME280;64005;55.160;36.002;2023-02-01T08:51:15;97799.59;;;1.10;74.95
75424;BME280;64005;55.160;36.002;2023-02-01T08:53:43;97951.91;;;2.07;75.60
75424;BME280;64005;55.160;36.002;2023-02-01T08:56:14;97933.03;;;1.92;75.40
75424;BME280;64005;55.160;36.002;2023-02-01T08:58:42;97952.53;;;2.04;75.68
75424;BME280;64005;55.160;36.002;2023-02-01T09:01:12;97924.91;;;1.87;75.23
75424;BME280;64005;55.160;36.002;2023-02-01T09:03:40;97922.94;;;2.01;75.06
75424;BME280;64005;55.160;36.002;2023-02-01T09:06:11;97939.38;;;2.28;75.04
75424;BME280;64005;55.160;36.002;2023-02-01T09:08:38;97932.66;;;2.34;74.62
75424;BME280;64005;55.160;36.002;2023-02-01T09:11:09;97933.47;;;2.35;74.37
75424;BME280;64005;55.160;36.002;2023-02-01T09:13:39;97938.78;;;2.54;74.18
75424;BME280;64005;55.160;36.002;2023-02-01T09:16:06;97935.31;;;2.62;74.14
75424;BME280;64005;55.160;36.002;2023-02-01T09:18:34;97939.75;;;2.71;74.02
75424;BME280;64005;55.160;36.002;2023-02-01T09:21:04;97930.44;;;2.81;73.17
75424;BME280;64005;55.160;36.002;2023-02-01T09:23:31;97920.91;;;2.78;73.45
75424;BME280;64005;55.160;36.002;2023-02-01T09:25:59;97931.53;;;2.71;73.62
75424;BME280;64005;55.160;36.002;2023-02-01T09:28:27;97924.28;;;2.75;73.55
75424;BME280;64005;55.160;36.002;2023-02-01T09:30:57;97929.34;;;2.82;73.22
75424;BME280;64005;55.160;36.002;2023-02-01T09:33:25;97929.16;;;2.78;73.41
75424;BME280;64005;55.160;36.002;2023-02-01T09:35:56;97931.53;;;2.71;73.28
75424;BME280;64005;55.160;36.002;2023-02-01T09:38:23;97933.59;;;2.66;73.25
75424;BME280;64005;55.160;36.002;2023-02-01T09:40:53;97933.69;;;2.61;73.29
75424;BME280;64005;55.160;36.002;2023-02-01T09:43:32;97929.66;;;2.58;73.45
75424;BME280;64005;55.160;36.002;2023-02-01T09:46:21;97918.88;;;2.48;73.35
75424;BME280;64005;55.160;36.002;2023-02-01T09:48:53;97935.19;;;2.45;73.36
75424;BME280;64005;55.160;36.002;2023-02-01T09:51:24;97935.91;;;2.36;73.79
75424;BME280;64005;55.160;36.002;2023-02-01T09:53:59;97899.69;;;2.12;73.41
75424;BME280;64005;55.160;36.002;2023-02-01T09:56:34;97896.63;;;2.14;73.33
75424;BME280;64005;55.160;36.002;2023-02-01T09:59:10;97924.13;;;2.36;73.36
75424;BME280;64005;55.160;36.002;2023-02-01T10:01:47;97915.69;;;2.32;73.26
75424;BME280;64005;55.160;36.002;2023-02-01T10:04:16;97904.47;;;2.43;72.81
75424;BME280;64005;55.160;36.002;2023-02-01T10:06:55;97918.75;;;2.53;72.74
75424;BME280;64005;55.160;36.002;2023-02-01T10:09:51;97912.16;;;2.54;72.57
75424;BME280;64005;55.160;36.002;2023-02-01T10:12:58;97892.69;;;2.42;73.06
75424;BME280;64005;55.160;36.002;2023-02-01T10:15:45;97910.22;;;2.55;72.63
75424;BME280;64005;55.160;36.002;2023-02-01T10:18:34;97908.72;;;2.49;72.44
75424;BME280;64005;55.160;36.002;2023-02-01T10:21:12;97917.84;;;2.58;72.53
75424;BME280;64005;55.160;36.002;2023-02-01T10:24:00;97908.00;;;2.57;72.26
75424;BME280;64005;55.160;36.002;2023-02-01T10:26:33;97897.88;;;2.44;72.54
75424;BME280;64005;55.160;36.002;2023-02-01T10:29:03;97901.81;;;2.51;72.45
75424;BME280;64005;55.160;36.002;2023-02-01T10:31:35;97911.34;;;2.54;72.30
75424;BME280;64005;55.160;36.002;2023-02-01T10:34:15;97912.28;;;2.49;72.24
75424;BME280;64005;55.160;36.002;2023-02-01T10:36:53;97908.53;;;2.45;72.28
75424;BME280;64005;55.160;36.002;2023-02-01T10:39:21;97911.72;;;2.38;72.43
75424;BME280;64005;55.160;36.002;2023-02-01T10:41:50;97917.28;;;2.33;72.75
75424;BME280;64005;55.160;36.002;2023-02-01T10:44:21;97905.59;;;2.42;72.57
75424;BME280;64005;55.160;36.002;2023-02-01T10:46:50;97897.06;;;2.43;72.15
75424;BME280;64005;55.160;36.002;2023-02-01T10:49:24;97905.38;;;2.52;72.08
75424;BME280;64005;55.160;36.002;2023-02-01T10:51:58;97910.91;;;2.60;72.06
75424;BME280;64005;55.160;36.002;2023-02-01T10:54:36;97903.47;;;2.61;71.81
75424;BME280;64005;55.160;36.002;2023-02-01T10:57:07;97913.47;;;2.57;72.21
75424;BME280;64005;55.160;36.002;2023-02-01T10:59:35;97904.31;;;2.61;71.89
75424;BME280;64005;55.160;36.002;2023-02-01T11:02:16;97834.34;;;2.14;71.57
75424;BME280;64005;55.160;36.002;2023-02-01T11:04:46;97915.41;;;2.56;71.76
75424;BME280;64005;55.160;36.002;2023-02-01T11:07:18;97906.19;;;2.52;71.96
75424;BME280;64005;55.160;36.002;2023-02-01T11:09:50;97909.34;;;2.46;71.94
75424;BME280;64005;55.160;36.002;2023-02-01T11:12:25;97911.09;;;2.42;72.09
75424;BME280;64005;55.160;36.002;2023-02-01T11:15:14;97907.03;;;2.39;72.13
75424;BME280;64005;55.160;36.002;2023-02-01T11:17:44;97901.22;;;2.40;72.04
75424;BME280;64005;55.160;36.002;2023-02-01T11:20:17;97896.53;;;2.41;72.12
75424;BME280;64005;55.160;36.002;2023-02-01T11:22:46;97908.16;;;2.38;72.29
75424;BME280;64005;55.160;36.002;2023-02-01T11:25:16;97906.03;;;2.35;71.99
75424;BME280;64005;55.160;36.002;2023-02-01T11:27:45;97906.44;;;2.28;72.21
75424;BME280;64005;55.160;36.002;2023-02-01T11:30:16;97905.75;;;2.23;72.51
75424;BME280;64005;55.160;36.002;2023-02-01T11:32:46;97895.63;;;2.10;72.38
75424;BME280;64005;55.160;36.002;2023-02-01T11:35:19;97897.44;;;2.14;72.30
75424;BME280;64005;55.160;36.002;2023-02-01T11:37:52;97909.44;;;2.18;72.21
75424;BME280;64005;55.160;36.002;2023-02-01T11:40:27;97915.41;;;2.20;72.42
75424;BME280;64005;55.160;36.002;2023-02-01T11:42:58;97916.34;;;2.16;72.10
75424;BME280;64005;55.160;36.002;2023-02-01T11:45:27;97921.94;;;2.11;72.31
75424;BME280;64005;55.160;36.002;2023-02-01T11:47:56;97916.44;;;2.11;72.23
75424;BME280;64005;55.160;36.002;2023-02-01T11:50:34;97930.97;;;2.11;72.49
75424;BME280;64005;55.160;36.002;2023-02-01T11:53:18;97929.22;;;2.15;72.39
75424;BME280;64005;55.160;36.002;2023-02-01T11:55:57;97930.47;;;2.09;72.62
75424;BME280;64005;55.160;36.002;2023-02-01T11:58:59;97932.28;;;2.14;72.67
75424;BME280;64005;55.160;36.002;2023-02-01T12:02:06;97926.31;;;2.12;72.41
75424;BME280;64005;55.160;36.002;2023-02-01T12:04:51;97928.75;;;1.99;73.03
75424;BME280;64005;55.160;36.002;2023-02-01T12:07:32;97860.75;;;1.47;72.66
75424;BME280;64005;55.160;36.002;2023-02-01T12:10:15;97921.66;;;1.85;73.13
75424;BME280;64005;55.160;36.002;2023-02-01T12:12:58;97941.34;;;1.87;72.97
75424;BME280;64005;55.160;36.002;2023-02-01T12:15:41;97937.59;;;1.83;72.88
75424;BME280;64005;55.160;36.002;2023-02-01T12:21:53;97940.66;;;1.68;73.16
75424;BME280;64005;55.160;36.002;2023-02-01T12:27:46;97930.06;;;1.47;73.62
75424;BME280;64005;55.160;36.002;2023-02-01T12:30:34;97937.41;;;1.52;73.32
75424;BME280;64005;55.160;36.002;2023-02-01T12:33:11;97864.31;;;1.06;73.56
75424;BME280;64005;55.160;36.002;2023-02-01T12:35:54;97923.88;;;1.42;74.01
75424;BME280;64005;55.160;36.002;2023-02-01T12:38:52;97940.53;;;1.45;73.94
75424;BME280;64005;55.160;36.002;2023-02-01T12:41:35;97934.03;;;1.41;73.79
75424;BME280;64005;55.160;36.002;2023-02-01T12:44:11;97945.69;;;1.47;73.96
75424;BME280;64005;55.160;36.002;2023-02-01T12:46:45;97928.47;;;1.33;73.69
75424;BME280;64005;55.160;36.002;2023-02-01T12:49:19;97870.38;;;1.03;73.47
75424;BME280;64005;55.160;36.002;2023-02-01T12:52:02;97922.25;;;1.41;74.14
75424;BME280;64005;55.160;36.002;2023-02-01T12:54:36;97947.34;;;1.48;73.91
75424;BME280;64005;55.160;36.002;2023-02-01T12:57:11;97929.78;;;1.49;73.80
75424;BME280;64005;55.160;36.002;2023-02-01T12:59:44;97936.38;;;1.48;74.45
75424;BME280;64005;55.160;36.002;2023-02-01T13:02:23;97938.91;;;1.44;74.53
75424;BME280;64005;55.160;36.002;2023-02-01T13:04:57;97900.91;;;1.10;74.57
75424;BME280;64005;55.160;36.002;2023-02-01T13:07:34;97935.34;;;1.30;74.80
75424;BME280;64005;55.160;36.002;2023-02-01T13:10:13;97921.31;;;1.18;74.23
75424;BME280;64005;55.160;36.002;2023-02-01T13:12:48;97901.03;;;1.05;74.10
75424;BME280;64005;55.160;36.002;2023-02-01T13:15:23;97943.03;;;1.28;74.47
75424;BME280;64005;55.160;36.002;2023-02-01T13:17:53;97947.41;;;1.29;74.44
75424;BME280;64005;55.160;36.002;2023-02-01T13:20:26;97940.31;;;1.28;74.15
75424;BME280;64005;55.160;36.002;2023-02-01T13:23:00;97938.38;;;1.29;74.25
75424;BME280;64005;55.160;36.002;2023-02-01T13:25:35;97899.69;;;1.03;74.94
75424;BME280;64005;55.160;36.002;2023-02-01T13:28:09;97923.34;;;1.12;74.97
75424;BME280;64005;55.160;36.002;2023-02-01T13:31:02;97927.69;;;1.13;75.16
75424;BME280;64005;55.160;36.002;2023-02-01T13:33:47;97943.97;;;1.24;75.16
75424;BME280;64005;55.160;36.002;2023-02-01T13:36:49;97944.34;;;1.17;74.67